sensor_id;sensor_type;location;lat;lon;timestamp;pressure;altitude;pressure_sealevel;temperature;humidity
30636;BME280;17400;52.392;9.750;2023-02-28T00:01:27;102522.00;;;3.60;88.57
30636;BME280;17400;52.392;9.750;2023-02-28T00:03:55;102515.16;;;3.56;88.91
30636;BME280;17400;52.392;9.750;2023-02-28T00:06:23;102526.91;;;3.54;89.33
30636;BME280;17400;52.392;9.750;2023-02-28T00:08:51;102521.56;;;3.54;88.99
30636;BME280;17400;52.392;9.750;2023-02-28T00:11:20;102521.88;;;3.49;89.50
30636;BME280;17400;52.392;9.750;2023-02-28T00:13:49;102525.09;;;3.54;89.24
30636;BME280;17400;52.392;9.750;2023-02-28T00:16:18;102516.63;;;3.47;88.54
30636;BME280;17400;52.392;9.750;2023-02-28T00:18:48;102524.13;;;3.42;89.57
30636;BME280;17400;52.392;9.750;2023-02-28T00:21:17;102516.19;;;3.41;89.43
30636;BME280;17400;52.392;9.750;2023-02-28T00:23:46;102516.31;;;3.39;90.03
30636;BME280;17400;52.392;9.750;2023-02-28T00:26:16;102522.38;;;3.41;89.12
30636;BME280;17400;52.392;9.750;2023-02-28T00:28:48;102512.13;;;3.35;89.02
30636;BME280;17400;52.392;9.750;2023-02-28T00:31:16;102519.19;;;3.36;89.26
30636;BME280;17400;52.392;9.750;2023-02-28T00:33:44;102511.59;;;3.30;89.39
30636;BME280;17400;52.392;9.750;2023-02-28T00:36:13;102514.47;;;3.27;89.60
30636;BME280;17400;52.392;9.750;2023-02-28T00:38:41;102514.47;;;3.27;89.70
30636;BME280;17400;52.392;9.750;2023-02-28T00:41:09;102505.91;;;3.22;90.01
30636;BME280;17400;52.392;9.750;2023-02-28T00:43:38;102509.53;;;3.21;90.04
30636;BME280;17400;52.392;9.750;2023-02-28T00:46:09;102505.91;;;3.22;90.58
30636;BME280;17400;52.392;9.750;2023-02-28T00:48:37;102509.84;;;3.16;90.94
30636;BME280;17400;52.392;9.750;2023-02-28T00:51:05;102506.94;;;3.06;91.72
30636;BME280;17400;52.392;9.750;2023-02-28T00:53:33;102510.44;;;3.07;92.32
30636;BME280;17400;52.392;9.750;2023-02-28T00:56:01;102507.78;;;3.07;92.31
30636;BME280;17400;52.392;9.750;2023-02-28T00:58:32;102507.16;;;3.03;93.04
30636;BME280;17400;52.392;9.750;2023-02-28T01:01:00;102516.88;;;3.04;93.65
30636;BME280;17400;52.392;9.750;2023-02-28T01:03:30;102508.09;;;3.02;94.11
30636;BME280;17400;52.392;9.750;2023-02-28T01:05:58;102510.97;;;2.99;94.09
30636;BME280;17400;52.392;9.750;2023-02-28T01:08:26;102515.03;;;2.92;94.62
30636;BME280;17400;52.392;9.750;2023-02-28T01:10:54;102525.28;;;2.85;95.22
30636;BME280;17400;52.392;9.750;2023-02-28T01:13:22;102520.31;;;2.79;95.59
30636;BME280;17400;52.392;9.750;2023-02-28T01:15:51;102519.47;;;2.78;96.04
30636;BME280;17400;52.392;9.750;2023-02-28T01:18:21;102521.22;;;2.79;96.28
30636;BME280;17400;52.392;9.750;2023-02-28T01:20:50;102514.13;;;2.78;96.83
30636;BME280;17400;52.392;9.750;2023-02-28T01:23:19;102512.97;;;2.82;96.49
30636;BME280;17400;52.392;9.750;2023-02-28T01:25:48;102521.84;;;2.83;96.87
30636;BME280;17400;52.392;9.750;2023-02-28T01:28:15;102519.09;;;2.85;96.38
30636;BME280;17400;52.392;9.750;2023-02-28T01:30:47;102524.44;;;2.85;96.21
30636;BME280;17400;52.392;9.750;2023-02-28T01:33:15;102522.91;;;2.80;96.86
30636;BME280;17400;52.392;9.750;2023-02-28T01:35:43;102516.25;;;2.73;96.63
30636;BME280;17400;52.392;9.750;2023-02-28T01:38:12;102518.16;;;2.71;97.18
30636;BME280;17400;52.392;9.750;2023-02-28T01:40:48;102512.81;;;2.71;96.95
30636;BME280;17400;52.392;9.750;2023-02-28T01:43:21;102517.41;;;2.69;97.55
30636;BME280;17400;52.392;9.750;2023-02-28T01:45:51;102506.56;;;2.58;97.79
30636;BME280;17400;52.392;9.750;2023-02-28T01:48:22;102507.53;;;2.57;97.49
30636;BME280;17400;52.392;9.750;2023-02-28T01:50:53;102515.56;;;2.57;98.07
30636;BME280;17400;52.392;9.750;2023-02-28T01:53:27;102515.63;;;2.55;98.09
30636;BME280;17400;52.392;9.750;2023-02-28T01:55:57;102514.00;;;2.53;98.32
30636;BME280;17400;52.392;9.750;2023-02-28T01:58:25;102526.28;;;2.42;98.03
30636;BME280;17400;52.392;9.750;2023-02-28T02:00:53;102524.00;;;2.36;99.12
30636;BME280;17400;52.392;9.750;2023-02-28T02:03:21;102523.44;;;2.31;99.37
30636;BME280;17400;52.392;9.750;2023-02-28T02:05:49;102516.84;;;2.22;100.00
30636;BME280;17400;52.392;9.750;2023-02-28T02:08:19;102517.25;;;2.16;100.00
30636;BME280;17400;52.392;9.750;2023-02-28T02:10:52;102519.47;;;2.09;100.00
30636;BME280;17400;52.392;9.750;2023-02-28T02:13:40;102515.81;;;2.10;100.00
30636;BME280;17400;52.392;9.750;2023-02-28T02:16:20;102510.56;;;2.09;100.00
30636;BME280;17400;52.392;9.750;2023-02-28T02:18:53;102502.88;;;2.04;100.00
30636;BME280;17400;52.392;9.750;2023-02-28T02:24:52;102504.00;;;2.00;100.00
30636;BME280;17400;52.392;9.750;2023-02-28T02:27:46;102499.34;;;1.89;100.00
30636;BME280;17400;52.392;9.750;2023-02-28T02:33:28;102500.78;;;1.80;100.00
30636;BME280;17400;52.392;9.750;2023-02-28T02:36:07;102498.09;;;1.80;100.00
30636;BME280;17400;52.392;9.750;2023-02-28T02:38:42;102492.66;;;1.82;100.00
30636;BME280;17400;52.392;9.750;2023-02-28T02:41:16;102502.50;;;1.81;100.00
30636;BME280;17400;52.392;9.750;2023-02-28T02:43:49;102501.72;;;1.79;100.00
30636;BME280;17400;52.392;9.750;2023-02-28T02:46:20;102499.06;;;1.79;100.00
30636;BME280;17400;52.392;9.750;2023-02-28T02:48:53;102507.16;;;1.78;100.00
30636;BME280;17400;52.392;9.750;2023-02-28T02:51:26;102499.25;;;1.76;100.00
30636;BME280;17400;52.392;9.750;2023-02-28T02:53:58;102510.97;;;1.74;100.00
30636;BME280;17400;52.392;9.750;2023-02-28T02:56:29;102508.00;;;1.78;100.00
30636;BME280;17400;52.392;9.750;2023-02-28T02:59:01;102503.81;;;1.74;100.00
30636;BME280;17400;52.392;9.750;2023-02-28T03:01:32;102512.50;;;1.78;100.00
30636;BME280;17400;52.392;9.750;2023-02-28T03:04:05;102502.66;;;1.78;100.00
30636;BME280;17400;52.392;9.750;2023-02-28T03:06:34;102512.97;;;1.70;100.00
30636;BME280;17400;52.392;9.750;2023-02-28T03:09:02;102512.41;;;1.65;100.00
30636;BME280;17400;52.392;9.750;2023-02-28T03:11:31;102505.25;;;1.65;100.00
30636;BME280;17400;52.392;9.750;2023-02-28T03:14:30;102504.59;;;1.62;100.00
30636;BME280;17400;52.392;9.750;2023-02-28T03:17:15;102507.47;;;1.59;100.00
30636;BME280;17400;52.392;9.750;2023-02-28T03:19:54;102497.63;;;1.59;100.00
30636;BME280;17400;52.392;9.750;2023-02-28T03:22:33;102502.66;;;1.64;100.00
30636;BME280;17400;52.392;9.750;2023-02-28T03:25:09;102503.72;;;1.61;100.00
30636;BME280;17400;52.392;9.750;2023-02-28T03:27:41;102504.28;;;1.52;100.00
30636;BME280;17400;52.392;9.750;2023-02-28T03:30:14;102497.03;;;1.40;100.00
30636;BME280;17400;52.392;9.750;2023-02-28T03:32:51;102493.78;;;1.35;100.00
30636;BME280;17400;52.392;9.750;2023-02-28T03:35:23;102493.69;;;1.36;100.00
30636;BME280;17400;52.392;9.750;2023-02-28T03:38:00;102492.72;;;1.37;100.00
30636;BME280;17400;52.392;9.750;2023-02-28T03:40:32;102498.75;;;1.41;100.00
30636;BME280;17400;52.392;9.750;2023-02-28T03:43:09;102491.50;;;1.43;100.00
30636;BME280;17400;52.392;9.750;2023-02-28T03:45:39;102494.09;;;1.44;100.00
30636;BME280;17400;52.392;9.750;2023-02-28T03:48:12;102490.38;;;1.47;100.00
30636;BME280;17400;52.392;9.750;2023-02-28T03:50:43;102494.84;;;1.46;100.00
30636;BME280;17400;52.392;9.750;2023-02-28T03:53:16;102496.38;;;1.50;100.00
30636;BME280;17400;52.392;9.750;2023-02-28T03:55:48;102491.91;;;1.51;100.00
30636;BME280;17400;52.392;9.750;2023-02-28T03:58:21;102493.53;;;1.54;100.00
30636;BME280;17400;52.392;9.750;2023-02-28T04:00:56;102502.59;;;1.51;100.00
30636;BME280;17400;52.392;9.750;2023-02-28T04:03:25;102494.47;;;1.53;100.00
30636;BME280;17400;52.392;9.750;2023-02-28T04:05:55;102497.41;;;1.48;100.00
30636;BME280;17400;52.392;9.750;2023-02-28T04:08:25;102497.50;;;1.46;100.00
30636;BME280;17400;52.392;9.750;2023-02-28T04:10:57;102502.09;;;1.44;100.00
30636;BME280;17400;52.392;9.750;2023-02-28T04:13:28;102502.38;;;1.40;100.00
30636;BME280;17400;52.392;9.750;2023-02-28T04:15:55;102501.78;;;1.35;100.00
30636;BME280;17400;52.392;9.750;2023-02-28T04:18:23;102503.59;;;1.34;100.00
30636;BME280;17400;52.392;9.750;2023-02-28T04:20:51;102504.63;;;1.31;100.00
30636;BME280;17400;52.392;9.750;2023-02-28T04:23:19;102507.13;;;1.35;100.00
30636;BME280;17400;52.392;9.750;2023-02-28T04:25:49;102501.03;;;1.32;100.00
30636;BME280;17400;52.392;9.750;2023-02-28T04:28:17;102502.66;;;1.35;100.00
30636;BME280;17400;52.392;9.750;2023-02-28T04:30:45;102506.16;;;1.36;100.00
30636;BME280;17400;52.392;9.750;2023-02-28T04:33:13;102506.63;;;1.28;100.00
30636;BME280;17400;52.392;9.750;2023-02-28T04:35:41;102509.28;;;1.28;100.00
30636;BME280;17400;52.392;9.750;2023-02-28T04:38:08;102509.41;;;1.26;100.00
30636;BME280;17400;52.392;9.750;2023-02-28T04:40:36;102504.16;;;1.25;100.00
30636;BME280;17400;52.392;9.750;2023-02-28T04:43:06;102506.22;;;1.20;100.00
30636;BME280;17400;52.392;9.750;2023-02-28T04:45:34;102508.41;;;1.13;100.00
30636;BME280;17400;52.392;9.750;2023-02-28T04:48:02;102510.50;;;1.08;100.00
30636;BME280;17400;52.392;9.750;2023-02-28T04:50:30;102510.75;;;1.03;100.00
30636;BME280;17400;52.392;9.750;2023-02-28T04:52:58;102519.72;;;1.02;100.00
30636;BME280;17400;52.392;9.750;2023-02-28T04:55:27;102516.06;;;1.03;100.00
30636;BME280;17400;52.392;9.750;2023-02-28T04:57:54;102514.53;;;0.99;100.00
30636;BME280;17400;52.392;9.750;2023-02-28T05:00:24;102515.53;;;0.98;100.00
30636;BME280;17400;52.392;9.750;2023-02-28T05:02:51;102515.69;;;0.95;100.00
30636;BME280;17400;52.392;9.750;2023-02-28T05:05:20;102512.50;;;0.88;100.00
30636;BME280;17400;52.392;9.750;2023-02-28T05:07:48;102512.59;;;0.87;100.00
30636;BME280;17400;52.392;9.750;2023-02-28T05:10:16;102515.47;;;0.83;100.00
30636;BME280;17400;52.392;9.750;2023-02-28T05:12:44;102516.50;;;0.81;100.00
30636;BME280;17400;52.392;9.750;2023-02-28T05:15:13;102511.25;;;0.79;100.00
30636;BME280;17400;52.392;9.750;2023-02-28T05:17:42;102511.50;;;0.75;100.00
30636;BME280;17400;52.392;9.750;2023-02-28T05:20:12;102512.28;;;0.77;100.00
30636;BME280;17400;52.392;9.750;2023-02-28T05:22:42;102516.00;;;0.74;100.00
30636;BME280;17400;52.392;9.750;2023-02-28T05:25:16;102517.88;;;0.72;100.00
30636;BME280;17400;52.392;9.750;2023-02-28T05:27:44;102516.06;;;0.73;100.00
30636;BME280;17400;52.392;9.750;2023-02-28T05:30:12;102516.94;;;0.73;100.00
30636;BME280;17400;52.392;9.750;2023-02-28T05:32:42;102516.44;;;0.66;100.00
30636;BME280;17400;52.392;9.750;2023-02-28T05:35:10;102514.78;;;0.64;100.00
30636;BME280;17400;52.392;9.750;2023-02-28T05:37:38;102514.78;;;0.64;100.00
30636;BME280;17400;52.392;9.750;2023-02-28T05:40:09;102520.13;;;0.64;100.00
30636;BME280;17400;52.392;9.750;2023-02-28T05:42:37;102531.22;;;0.56;100.00
30636;BME280;17400;52.392;9.750;2023-02-28T05:45:07;102544.53;;;0.40;100.00
30636;BME280;17400;52.392;9.750;2023-02-28T05:47:36;102542.06;;;0.37;100.00
30636;BME280;17400;52.392;9.750;2023-02-28T05:50:07;102547.44;;;0.36;100.00
30636;BME280;17400;52.392;9.750;2023-02-28T05:52:36;102535.94;;;0.35;100.00
30636;BME280;17400;52.392;9.750;2023-02-28T05:55:07;102542.06;;;0.37;100.00
30636;BME280;17400;52.392;9.750;2023-02-28T05:57:35;102544.53;;;0.40;100.00
30636;BME280;17400;52.392;9.750;2023-02-28T06:00:04;102539.03;;;0.43;100.00
30636;BME280;17400;52.392;9.750;2023-02-28T06:02:32;102532.69;;;0.46;100.00
30636;BME280;17400;52.392;9.750;2023-02-28T06:05:00;102530.81;;;0.48;100.00
30636;BME280;17400;52.392;9.750;2023-02-28T06:07:29;102538.59;;;0.51;100.00
30636;BME280;17400;52.392;9.750;2023-02-28T06:09:57;102531.13;;;0.58;100.00
30636;BME280;17400;52.392;9.750;2023-02-28T06:12:25;102538.94;;;0.61;100.00
30636;BME280;17400;52.392;9.750;2023-02-28T06:14:53;102545.75;;;0.66;100.00
30636;BME280;17400;52.392;9.750;2023-02-28T06:17:20;102539.47;;;0.68;100.00
30636;BME280;17400;52.392;9.750;2023-02-28T06:19:49;102540.41;;;0.66;100.00
30636;BME280;17400;52.392;9.750;2023-02-28T06:22:17;102549.16;;;0.69;100.00
30636;BME280;17400;52.392;9.750;2023-02-28T06:24:47;102550.91;;;0.70;100.00
30636;BME280;17400;52.392;9.750;2023-02-28T06:27:15;102554.25;;;0.73;100.00
30636;BME280;17400;52.392;9.750;2023-02-28T06:29:43;102560.34;;;0.75;100.00
30636;BME280;17400;52.392;9.750;2023-02-28T06:32:14;102553.13;;;0.77;100.00
30636;BME280;17400;52.392;9.750;2023-02-28T06:34:42;102554.84;;;0.78;100.00
30636;BME280;17400;52.392;9.750;2023-02-28T06:37:10;102562.66;;;0.81;100.00
30636;BME280;17400;52.392;9.750;2023-02-28T06:39:38;102568.59;;;0.87;100.00
30636;BME280;17400;52.392;9.750;2023-02-28T06:42:08;102566.53;;;0.92;100.00
30636;BME280;17400;52.392;9.750;2023-02-28T06:44:36;102574.19;;;0.98;100.00
30636;BME280;17400;52.392;9.750;2023-02-28T06:47:06;102576.47;;;1.04;100.00
30636;BME280;17400;52.392;9.750;2023-02-28T06:49:35;102567.72;;;1.02;100.00
30636;BME280;17400;52.392;9.750;2023-02-28T06:52:05;102577.34;;;1.05;100.00
30636;BME280;17400;52.392;9.750;2023-02-28T06:54:40;102572.09;;;1.03;100.00
30636;BME280;17400;52.392;9.750;2023-02-28T06:57:09;102578.56;;;0.99;100.00
30636;BME280;17400;52.392;9.750;2023-02-28T06:59:40;102575.13;;;0.97;100.00
30636;BME280;17400;52.392;9.750;2023-02-28T07:02:09;102573.59;;;0.93;100.00
30636;BME280;17400;52.392;9.750;2023-02-28T07:04:37;102576.31;;;0.91;100.00
30636;BME280;17400;52.392;9.750;2023-02-28T07:07:07;102582.19;;;0.98;100.00
30636;BME280;17400;52.392;9.750;2023-02-28T07:09:35;102588.69;;;1.08;100.00
30636;BME280;17400;52.392;9.750;2023-02-28T07:12:05;102591.19;;;1.11;100.00
30636;BME280;17400;52.392;9.750;2023-02-28T07:14:36;102587.50;;;1.14;100.00
30636;BME280;17400;52.392;9.750;2023-02-28T07:17:03;102588.16;;;1.17;100.00
30636;BME280;17400;52.392;9.750;2023-02-28T07:19:31;102586.09;;;1.23;100.00
30636;BME280;17400;52.392;9.750;2023-02-28T07:21:59;102588.41;;;1.29;99.82
30636;BME280;17400;52.392;9.750;2023-02-28T07:24:29;102594.22;;;1.36;100.00
30636;BME280;17400;52.392;9.750;2023-02-28T07:26:58;102595.06;;;1.36;98.37
30636;BME280;17400;52.392;9.750;2023-02-28T07:29:27;102591.13;;;1.43;98.32
30636;BME280;17400;52.392;9.750;2023-02-28T07:31:56;102598.94;;;1.46;97.42
30636;BME280;17400;52.392;9.750;2023-02-28T07:34:26;102600.66;;;1.47;96.93
30636;BME280;17400;52.392;9.750;2023-02-28T07:36:55;102606.38;;;1.56;97.65
30636;BME280;17400;52.392;9.750;2023-02-28T07:39:23;102594.47;;;1.61;97.02
30636;BME280;17400;52.392;9.750;2023-02-28T07:41:50;102600.25;;;1.70;96.80
30636;BME280;17400;52.392;9.750;2023-02-28T07:44:18;102610.63;;;1.74;95.60
30636;BME280;17400;52.392;9.750;2023-02-28T07:46:48;102607.97;;;1.74;95.32
30636;BME280;17400;52.392;9.750;2023-02-28T07:49:19;102604.16;;;1.78;94.89
30636;BME280;17400;52.392;9.750;2023-02-28T07:51:48;102604.25;;;1.77;95.63
30636;BME280;17400;52.392;9.750;2023-02-28T07:54:17;102607.31;;;1.85;94.54
30636;BME280;17400;52.392;9.750;2023-02-28T07:56:45;102602.63;;;1.89;93.84
30636;BME280;17400;52.392;9.750;2023-02-28T07:59:13;102599.13;;;1.88;95.00
30636;BME280;17400;52.392;9.750;2023-02-28T08:01:41;102596.16;;;1.93;94.96
30636;BME280;17400;52.392;9.750;2023-02-28T08:04:11;102598.16;;;2.04;94.03
30636;BME280;17400;52.392;9.750;2023-02-28T08:06:40;102590.44;;;2.13;93.27
30636;BME280;17400;52.392;9.750;2023-02-28T08:09:08;102591.66;;;2.22;92.42
30636;BME280;17400;52.392;9.750;2023-02-28T08:11:36;102593.75;;;2.31;91.34
30636;BME280;17400;52.392;9.750;2023-02-28T08:14:03;102587.56;;;2.31;90.53
30636;BME280;17400;52.392;9.750;2023-02-28T08:16:32;102580.50;;;2.30;89.89
30636;BME280;17400;52.392;9.750;2023-02-28T08:19:03;102588.34;;;2.33;90.35
30636;BME280;17400;52.392;9.750;2023-02-28T08:21:30;102599.69;;;2.37;89.77
30636;BME280;17400;52.392;9.750;2023-02-28T08:24:00;102601.50;;;2.36;89.53
30636;BME280;17400;52.392;9.750;2023-02-28T08:26:28;102601.72;;;2.33;88.52
30636;BME280;17400;52.392;9.750;2023-02-28T08:28:56;102593.38;;;2.38;88.72
30636;BME280;17400;52.392;9.750;2023-02-28T08:31:27;102599.88;;;2.33;87.16
30636;BME280;17400;52.392;9.750;2023-02-28T08:33:55;102602.19;;;2.40;87.00
30636;BME280;17400;52.392;9.750;2023-02-28T08:36:25;102599.97;;;2.46;86.82
30636;BME280;17400;52.392;9.750;2023-02-28T08:38:56;102603.59;;;2.60;87.38
30636;BME280;17400;52.392;9.750;2023-02-28T08:41:26;102605.00;;;2.65;86.12
30636;BME280;17400;52.392;9.750;2023-02-28T08:43:55;102604.88;;;2.81;85.89
30636;BME280;17400;52.392;9.750;2023-02-28T08:46:23;102593.78;;;2.88;86.74
30636;BME280;17400;52.392;9.750;2023-02-28T08:48:52;102600.13;;;2.99;85.63
30636;BME280;17400;52.392;9.750;2023-02-28T08:51:20;102599.22;;;3.13;84.79
30636;BME280;17400;52.392;9.750;2023-02-28T08:53:54;102597.34;;;3.28;82.28
30636;BME280;17400;52.392;9.750;2023-02-28T08:56:23;102601.59;;;3.18;76.93
30636;BME280;17400;52.392;9.750;2023-02-28T08:58:56;102607.41;;;3.25;76.50
30636;BME280;17400;52.392;9.750;2023-02-28T09:01:26;102601.97;;;3.39;76.63
30636;BME280;17400;52.392;9.750;2023-02-28T09:03:56;102599.97;;;3.56;75.19
30636;BME280;17400;52.392;9.750;2023-02-28T09:06:25;102605.47;;;3.67;75.92
30636;BME280;17400;52.392;9.750;2023-02-28T09:08:56;102609.13;;;3.79;75.40
30636;BME280;17400;52.392;9.750;2023-02-28T09:11:26;102597.19;;;3.70;70.66
30636;BME280;17400;52.392;9.750;2023-02-28T09:13:55;102603.41;;;3.83;71.70
30636;BME280;17400;52.392;9.750;2023-02-28T09:16:22;102608.13;;;3.93;71.03
30636;BME280;17400;52.392;9.750;2023-02-28T09:18:51;102606.22;;;3.95;69.83
30636;BME280;17400;52.392;9.750;2023-02-28T09:21:19;102603.31;;;3.98;70.87
30636;BME280;17400;52.392;9.750;2023-02-28T09:23:48;102606.66;;;4.14;70.86
30636;BME280;17400;52.392;9.750;2023-02-28T09:26:17;102602.16;;;4.15;67.00
30636;BME280;17400;52.392;9.750;2023-02-28T09:28:47;102600.34;;;4.15;67.42
30636;BME280;17400;52.392;9.750;2023-02-28T09:31:20;102604.50;;;3.68;66.78
30636;BME280;17400;52.392;9.750;2023-02-28T09:33:49;102599.78;;;3.84;67.26
30636;BME280;17400;52.392;9.750;2023-02-28T09:36:18;102605.56;;;3.91;68.24
30636;BME280;17400;52.392;9.750;2023-02-28T09:38:49;102599.78;;;3.97;67.87
30636;BME280;17400;52.392;9.750;2023-02-28T09:41:20;102606.19;;;4.21;67.97
30636;BME280;17400;52.392;9.750;2023-02-28T09:43:51;102608.16;;;4.19;66.19
30636;BME280;17400;52.392;9.750;2023-02-28T09:46:29;102604.09;;;4.13;64.79
30636;BME280;17400;52.392;9.750;2023-02-28T09:49:00;102610.72;;;4.07;64.68
30636;BME280;17400;52.392;9.750;2023-02-28T09:51:49;102607.50;;;4.02;65.39
30636;BME280;17400;52.392;9.750;2023-02-28T09:54:19;102609.88;;;3.94;65.28
30636;BME280;17400;52.392;9.750;2023-02-28T09:56:50;102607.31;;;4.05;65.49
30636;BME280;17400;52.392;9.750;2023-02-28T09:59:31;102605.88;;;3.99;65.77
30636;BME280;17400;52.392;9.750;2023-02-28T10:02:15;102607.06;;;4.08;64.23
30636;BME280;17400;52.392;9.750;2023-02-28T10:04:49;102606.75;;;4.00;63.95
30636;BME280;17400;52.392;9.750;2023-02-28T10:07:35;102603.66;;;3.93;62.30
30636;BME280;17400;52.392;9.750;2023-02-28T10:10:17;102600.88;;;4.08;63.54
30636;BME280;17400;52.392;9.750;2023-02-28T10:12:47;102599.47;;;4.28;62.87
30636;BME280;17400;52.392;9.750;2023-02-28T10:15:22;102602.56;;;4.22;60.27
30636;BME280;17400;52.392;9.750;2023-02-28T10:17:58;102594.22;;;4.13;59.79
30636;BME280;17400;52.392;9.750;2023-02-28T10:20:36;102595.69;;;4.30;60.19
30636;BME280;17400;52.392;9.750;2023-02-28T10:23:10;102601.13;;;4.42;59.95
30636;BME280;17400;52.392;9.750;2023-02-28T10:25:40;102592.22;;;4.54;58.74
30636;BME280;17400;52.392;9.750;2023-02-28T10:28:16;102591.66;;;4.62;58.01
30636;BME280;17400;52.392;9.750;2023-02-28T10:30:46;102585.31;;;4.63;58.83
30636;BME280;17400;52.392;9.750;2023-02-28T10:33:22;102587.72;;;4.55;57.61
30636;BME280;17400;52.392;9.750;2023-02-28T10:35:51;102599.06;;;4.71;56.36
30636;BME280;17400;52.392;9.750;2023-02-28T10:38:21;102591.00;;;4.71;55.46
30636;BME280;17400;52.392;9.750;2023-02-28T10:40:49;102595.06;;;4.77;53.72
30636;BME280;17400;52.392;9.750;2023-02-28T10:43:22;102590.78;;;4.61;54.44
30636;BME280;17400;52.392;9.750;2023-02-28T10:45:59;102591.56;;;4.63;54.02
30636;BME280;17400;52.392;9.750;2023-02-28T10:48:33;102588.19;;;4.73;52.68
30636;BME280;17400;52.392;9.750;2023-02-28T10:51:02;102595.06;;;4.77;52.50
30636;BME280;17400;52.392;9.750;2023-02-28T10:53:36;102591.34;;;4.54;51.24
30636;BME280;17400;52.392;9.750;2023-02-28T10:56:25;102592.00;;;4.57;51.28
30636;BME280;17400;52.392;9.750;2023-02-28T10:58:55;102586.22;;;4.50;51.28
30636;BME280;17400;52.392;9.750;2023-02-28T11:01:35;102589.78;;;4.38;51.84
30636;BME280;17400;52.392;9.750;2023-02-28T11:04:17;102592.38;;;4.27;52.31
30636;BME280;17400;52.392;9.750;2023-02-28T11:06:46;102589.25;;;4.33;51.80
30636;BME280;17400;52.392;9.750;2023-02-28T11:09:20;102581.94;;;4.35;51.14
30636;BME280;17400;52.392;9.750;2023-02-28T11:11:50;102577.03;;;4.29;50.96
30636;BME280;17400;52.392;9.750;2023-02-28T11:14:20;102575.50;;;4.50;51.68
30636;BME280;17400;52.392;9.750;2023-02-28T11:16:50;102568.09;;;4.54;49.56
30636;BME280;17400;52.392;9.750;2023-02-28T11:19:23;102578.00;;;4.41;48.35
30636;BME280;17400;52.392;9.750;2023-02-28T11:21:55;102565.72;;;4.49;48.69
30636;BME280;17400;52.392;9.750;2023-02-28T11:24:26;102570.88;;;4.53;47.97
30636;BME280;17400;52.392;9.750;2023-02-28T11:26:55;102567.97;;;4.56;48.79
30636;BME280;17400;52.392;9.750;2023-02-28T11:29:26;102570.72;;;4.67;49.60
30636;BME280;17400;52.392;9.750;2023-02-28T11:32:03;102564.56;;;4.78;49.89
30636;BME280;17400;52.392;9.750;2023-02-28T11:34:32;102555.44;;;4.80;49.83
30636;BME280;17400;52.392;9.750;2023-02-28T11:37:01;102557.47;;;4.77;49.56
30636;BME280;17400;52.392;9.750;2023-02-28T11:39:32;102552.00;;;4.78;49.27
30636;BME280;17400;52.392;9.750;2023-02-28T11:42:28;102548.69;;;4.75;50.16
30636;BME280;17400;52.392;9.750;2023-02-28T11:45:11;102549.66;;;4.74;49.96
30636;BME280;17400;52.392;9.750;2023-02-28T11:47:46;102549.00;;;4.83;49.94
30636;BME280;17400;52.392;9.750;2023-02-28T11:50:22;102551.75;;;4.81;50.62
30636;BME280;17400;52.392;9.750;2023-02-28T11:52:57;102548.88;;;4.84;50.38
30636;BME280;17400;52.392;9.750;2023-02-28T11:55:31;102547.38;;;4.80;50.45
30636;BME280;17400;52.392;9.750;2023-02-28T11:58:27;102547.78;;;4.87;50.45
30636;BME280;17400;52.392;9.750;2023-02-28T12:01:13;102546.13;;;4.73;50.48
30636;BME280;17400;52.392;9.750;2023-02-28T12:03:45;102542.38;;;4.63;50.69
30636;BME280;17400;52.392;9.750;2023-02-28T12:06:23;102540.19;;;4.81;51.08
30636;BME280;17400;52.392;9.750;2023-02-28T12:09:00;102547.69;;;5.00;50.81
30636;BME280;17400;52.392;9.750;2023-02-28T12:11:39;102542.31;;;5.24;51.52
30636;BME280;17400;52.392;9.750;2023-02-28T12:14:29;102543.56;;;5.31;51.72
30636;BME280;17400;52.392;9.750;2023-02-28T12:17:08;102538.16;;;5.56;52.49
30636;BME280;17400;52.392;9.750;2023-02-28T12:19:45;102530.88;;;5.45;52.16
30636;BME280;17400;52.392;9.750;2023-02-28T12:22:27;102530.94;;;5.56;52.57
30636;BME280;17400;52.392;9.750;2023-02-28T12:25:20;102525.69;;;5.55;51.50
30636;BME280;17400;52.392;9.750;2023-02-28T12:27:49;102529.38;;;5.65;52.02
30636;BME280;17400;52.392;9.750;2023-02-28T12:30:22;102531.19;;;5.76;52.09
30636;BME280;17400;52.392;9.750;2023-02-28T12:32:54;102521.53;;;5.84;52.15
30636;BME280;17400;52.392;9.750;2023-02-28T12:35:26;102515.97;;;5.99;51.65
30636;BME280;17400;52.392;9.750;2023-02-28T12:38:04;102524.97;;;5.87;51.86
30636;BME280;17400;52.392;9.750;2023-02-28T12:40:42;102517.91;;;5.74;51.33
30636;BME280;17400;52.392;9.750;2023-02-28T12:43:13;102526.66;;;5.54;51.99
30636;BME280;17400;52.392;9.750;2023-02-28T12:45:43;102516.53;;;5.80;52.14
30636;BME280;17400;52.392;9.750;2023-02-28T12:48:20;102506.16;;;5.75;51.21
30636;BME280;17400;52.392;9.750;2023-02-28T12:50:49;102507.63;;;5.91;51.12
30636;BME280;17400;52.392;9.750;2023-02-28T12:53:23;102519.59;;;5.87;51.32
30636;BME280;17400;52.392;9.750;2023-02-28T12:56:01;102507.66;;;6.13;51.07
30636;BME280;17400;52.392;9.750;2023-02-28T12:58:38;102493.78;;;6.41;50.26
30636;BME280;17400;52.392;9.750;2023-02-28T13:01:33;102490.91;;;6.65;49.98
30636;BME280;17400;52.392;9.750;2023-02-28T13:04:22;102486.03;;;6.91;49.76
30636;BME280;17400;52.392;9.750;2023-02-28T13:07:08;102483.06;;;6.94;47.43
30636;BME280;17400;52.392;9.750;2023-02-28T13:09:51;102457.78;;;6.53;48.04
30636;BME280;17400;52.392;9.750;2023-02-28T13:12:20;102458.47;;;6.34;47.76
30636;BME280;17400;52.392;9.750;2023-02-28T13:14:49;102457.72;;;6.32;47.74
30636;BME280;17400;52.392;9.750;2023-02-28T13:17:19;102456.91;;;6.64;48.55
30636;BME280;17400;52.392;9.750;2023-02-28T13:19:56;102459.75;;;6.83;47.43
30636;BME280;17400;52.392;9.750;2023-02-28T13:22:38;102459.16;;;7.01;47.67
30636;BME280;17400;52.392;9.750;2023-02-28T13:28:58;102456.81;;;7.29;47.09